createdAt,value
2017-08-13T00:00:56.315Z,23.79
2017-08-13T00:01:56.360Z,23.76
2017-08-13T00:02:56.071Z,23.75
2017-08-13T00:03:56.397Z,23.73
2017-08-13T00:04:56.440Z,23.78
2017-08-13T00:05:56.810Z,23.7
2017-08-13T00:06:56.176Z,23.73
2017-08-13T00:07:56.523Z,23.68
2017-08-13T00:08:56.232Z,23.7
2017-08-13T00:09:56.572Z,23.73
2017-08-13T00:10:56.898Z,23.68
2017-08-13T00:11:56.007Z,23.7
2017-08-13T00:12:56.650Z,23.68
2017-08-13T00:13:56.065Z,23.69
2017-08-13T00:14:56.388Z,23.7
2017-08-13T00:15:57.030Z,23.75
2017-08-13T00:16:56.142Z,23.7
2017-08-13T00:17:56.473Z,23.72
2017-08-13T00:18:56.505Z,23.75
2017-08-13T00:19:56.840Z,23.66
2017-08-13T00:20:56.810Z,23.68
2017-08-13T00:21:56.582Z,23.61
2017-08-13T00:22:56.925Z,23.57
2017-08-13T00:23:56.972Z,23.6
2017-08-13T00:24:56.356Z,23.6
2017-08-13T00:25:57.246Z,23.6
2017-08-13T00:26:56.726Z,23.54
2017-08-13T00:27:56.749Z,23.57
2017-08-13T00:28:56.777Z,23.55
2017-08-13T00:29:56.799Z,23.65
2017-08-13T00:30:57.128Z,23.57
2017-08-13T00:31:56.859Z,23.65
2017-08-13T00:32:56.883Z,23.55
2017-08-13T00:33:57.224Z,23.54
2017-08-13T00:34:57.240Z,23.68
2017-08-13T00:35:57.214Z,23.61
2017-08-13T00:36:57.301Z,23.63
2017-08-13T00:37:57.016Z,23.6
2017-08-13T00:38:56.732Z,23.6
2017-08-13T00:39:57.078Z,23.68
2017-08-13T00:40:57.399Z,23.7
2017-08-13T00:41:57.438Z,23.57
2017-08-13T00:42:56.842Z,23.61
2017-08-13T00:43:57.171Z,23.58
2017-08-13T00:44:57.198Z,23.65
2017-08-13T00:45:57.553Z,23.57
2017-08-13T00:46:57.570Z,23.63
2017-08-13T00:47:57.290Z,23.53
2017-08-13T00:48:57.313Z,23.61
2017-08-13T00:49:57.653Z,23.61
2017-08-13T00:50:57.937Z,23.66
2017-08-13T00:51:57.710Z,23.57
2017-08-13T00:52:57.737Z,23.69
2017-08-13T00:53:57.770Z,23.65
2017-08-13T00:54:57.473Z,23.65
2017-08-13T00:55:57.813Z,23.63
2017-08-13T00:56:57.849Z,23.6
2017-08-13T00:57:57.871Z,23.6
2017-08-13T00:58:57.896Z,23.65
2017-08-13T00:59:57.921Z,23.6
2017-08-13T01:00:58.209Z,23.55
2017-08-13T01:01:57.985Z,23.61
2017-08-13T01:02:57.703Z,23.6
2017-08-13T01:03:58.038Z,23.6
2017-08-13T01:04:57.756Z,23.63
2017-08-13T01:05:58.027Z,23.58
2017-08-13T01:06:58.126Z,23.65
2017-08-13T01:07:58.146Z,23.58
2017-08-13T01:08:58.167Z,23.63
2017-08-13T01:09:58.212Z,23.58
2017-08-13T01:10:58.537Z,23.58
2017-08-13T01:11:58.256Z,23.61
2017-08-13T01:12:58.275Z,23.61
2017-08-13T01:13:57.990Z,23.55
2017-08-13T01:14:58.335Z,23.63
2017-08-13T01:15:58.621Z,23.58
2017-08-13T01:16:58.390Z,23.6
2017-08-13T01:17:58.106Z,23.57
2017-08-13T01:18:57.816Z,23.66
2017-08-13T01:19:58.485Z,23.58
2017-08-13T01:20:58.437Z,23.55
2017-08-13T01:21:58.526Z,23.55
2017-08-13T01:22:58.550Z,23.55
2017-08-13T01:23:58.269Z,23.58
2017-08-13T01:24:58.608Z,23.55
2017-08-13T01:25:58.624Z,23.54
2017-08-13T01:26:58.355Z,23.6
2017-08-13T01:27:58.376Z,23.53
2017-08-13T01:28:58.100Z,23.6
2017-08-13T01:29:58.745Z,23.57
2017-08-13T01:30:58.704Z,23.57
2017-08-13T01:31:58.486Z,23.57
2017-08-13T01:32:58.510Z,23.55
2017-08-13T01:33:58.856Z,23.58
2017-08-13T01:34:58.559Z,23.58
2017-08-13T01:35:59.208Z,23.54
2017-08-13T01:36:58.621Z,23.58
2017-08-13T01:37:58.649Z,23.57
2017-08-13T01:38:58.996Z,23.55
2017-08-13T01:39:59.031Z,23.55
2017-08-13T01:40:58.730Z,23.58
2017-08-13T01:41:59.070Z,23.51
2017-08-13T01:42:59.100Z,23.55
2017-08-13T01:43:58.491Z,23.54
2017-08-13T01:44:59.144Z,23.54
2017-08-13T01:45:58.544Z,23.53
2017-08-13T01:46:59.205Z,23.53
2017-08-13T01:47:59.234Z,23.46
2017-08-13T01:48:58.959Z,23.51
2017-08-13T01:49:58.968Z,23.48
2017-08-13T01:50:59.316Z,23.46
2017-08-13T01:51:59.046Z,23.47
2017-08-13T01:52:59.368Z,23.42
2017-08-13T01:53:59.082Z,23.48
2017-08-13T01:54:59.420Z,23.48
2017-08-13T01:55:59.447Z,23.48
2017-08-13T01:56:59.147Z,23.48
2017-08-13T01:57:59.502Z,23.46
2017-08-13T01:58:59.519Z,23.42
2017-08-13T01:59:59.557Z,23.42
2017-08-13T02:00:59.600Z,23.43
2017-08-13T02:01:59.597Z,23.46
2017-08-13T02:02:59.318Z,23.5
2017-08-13T02:03:59.663Z,23.43
2017-08-13T02:04:59.067Z,23.39
2017-08-13T02:05:59.093Z,23.36
2017-08-13T02:06:59.686Z,23.36
2017-08-13T02:07:59.460Z,23.38
2017-08-13T02:08:59.479Z,23.38
2017-08-13T02:09:59.826Z,23.38
2017-08-13T02:10:59.548Z,23.36
2017-08-13T02:11:59.870Z,23.38
2017-08-13T02:12:59.594Z,23.47
2017-08-13T02:13:59.642Z,23.35
2017-08-13T02:14:59.651Z,23.43
2017-08-13T02:15:59.980Z,23.43
2017-08-13T02:17:00.061Z,23.39
2017-08-13T02:18:00.038Z,23.39
2017-08-13T02:19:00.077Z,23.43
2017-08-13T02:20:00.090Z,23.4
2017-08-13T02:21:00.120Z,23.39
2017-08-13T02:22:00.405Z,23.38
2017-08-13T02:23:00.182Z,23.39
2017-08-13T02:24:00.203Z,23.35
2017-08-13T02:25:00.231Z,23.38
2017-08-13T02:25:59.637Z,23.32
2017-08-13T02:27:00.577Z,23.35
2017-08-13T02:28:00.317Z,23.31
2017-08-13T02:28:59.710Z,23.32
2017-08-13T02:30:00.371Z,23.32
2017-08-13T02:31:00.089Z,23.27
2017-08-13T02:32:00.674Z,23.32
2017-08-13T02:33:00.142Z,23.28
2017-08-13T02:34:00.483Z,23.32
2017-08-13T02:35:00.499Z,23.32
2017-08-13T02:36:00.525Z,23.28
2017-08-13T02:37:00.293Z,23.28
2017-08-13T02:38:00.605Z,23.31
2017-08-13T02:39:00.617Z,23.27
2017-08-13T02:40:00.636Z,23.25
2017-08-13T02:41:00.665Z,23.35
2017-08-13T02:42:00.944Z,23.33
2017-08-13T02:43:00.721Z,23.31
2017-08-13T02:44:00.431Z,23.28
2017-08-13T02:45:00.461Z,23.27
2017-08-13T02:46:00.492Z,23.33
2017-08-13T02:47:01.070Z,23.32
2017-08-13T02:48:00.568Z,23.32
2017-08-13T02:49:00.906Z,23.36
2017-08-13T02:50:00.599Z,23.33
2017-08-13T02:51:00.936Z,23.36
2017-08-13T02:52:01.264Z,23.36
2017-08-13T02:53:00.678Z,23.36
2017-08-13T02:54:00.703Z,23.33
2017-08-13T02:55:01.043Z,23.35
2017-08-13T02:56:01.065Z,23.32
2017-08-13T02:57:01.090Z,23.36
2017-08-13T02:58:01.121Z,23.28
2017-08-13T02:59:00.835Z,23.43
2017-08-13T03:00:01.179Z,23.36
2017-08-13T03:01:00.891Z,23.36
2017-08-13T03:02:00.917Z,23.35
2017-08-13T03:03:00.945Z,23.38
2017-08-13T03:04:00.667Z,23.35
2017-08-13T03:05:00.999Z,23.36
2017-08-13T03:06:01.028Z,23.32
2017-08-13T03:07:01.060Z,23.31
2017-08-13T03:08:01.382Z,23.32
2017-08-13T03:09:01.106Z,23.43
2017-08-13T03:10:01.447Z,23.35
2017-08-13T03:11:01.159Z,23.35
2017-08-13T03:12:01.192Z,23.33
2017-08-13T03:13:01.213Z,23.39
2017-08-13T03:14:01.239Z,23.39
2017-08-13T03:15:00.954Z,23.36
2017-08-13T03:16:00.980Z,23.39
2017-08-13T03:17:01.012Z,23.38
2017-08-13T03:18:01.659Z,23.38
2017-08-13T03:19:01.690Z,23.38
2017-08-13T03:20:01.724Z,23.35
2017-08-13T03:21:01.744Z,23.4
2017-08-13T03:22:01.456Z,23.38
2017-08-13T03:23:01.482Z,23.38
2017-08-13T03:24:01.194Z,23.32
2017-08-13T03:25:01.543Z,23.33
2017-08-13T03:26:01.567Z,23.38
2017-08-13T03:27:01.905Z,23.39
2017-08-13T03:28:01.622Z,23.33
2017-08-13T03:29:01.639Z,23.39
2017-08-13T03:30:01.986Z,23.4
2017-08-13T03:31:01.399Z,23.4
2017-08-13T03:32:02.045Z,23.39
2017-08-13T03:33:02.061Z,23.4
2017-08-13T03:34:01.769Z,23.46
2017-08-13T03:35:01.494Z,23.39
2017-08-13T03:36:01.832Z,23.5
2017-08-13T03:37:02.174Z,23.46
2017-08-13T03:38:02.202Z,23.43
2017-08-13T03:39:01.918Z,23.36
2017-08-13T03:40:02.256Z,23.35
2017-08-13T03:41:01.987Z,23.4
2017-08-13T03:42:02.319Z,23.42
2017-08-13T03:43:02.028Z,23.39
2017-08-13T03:44:02.353Z,23.36
2017-08-13T03:45:02.392Z,23.46
2017-08-13T03:46:02.106Z,23.42
2017-08-13T03:47:02.136Z,23.42
2017-08-13T03:48:02.474Z,23.43
2017-08-13T03:49:02.189Z,23.4
2017-08-13T03:50:01.915Z,23.47
2017-08-13T03:51:02.556Z,23.43
2017-08-13T03:52:01.956Z,23.43
2017-08-13T03:53:02.289Z,23.33
2017-08-13T03:54:02.322Z,23.4
2017-08-13T03:55:02.657Z,23.42
2017-08-13T03:56:02.376Z,23.43
2017-08-13T03:57:02.721Z,23.43
2017-08-13T03:58:02.437Z,23.42
2017-08-13T03:59:02.459Z,23.38
2017-08-13T04:00:02.171Z,23.39
2017-08-13T04:01:02.831Z,23.42
2017-08-13T04:02:02.852Z,23.35
2017-08-13T04:03:02.878Z,23.46
2017-08-13T04:04:02.598Z,23.42
2017-08-13T04:05:02.933Z,23.39
2017-08-13T04:06:02.650Z,23.38
2017-08-13T04:07:02.676Z,23.36
2017-08-13T04:08:02.701Z,23.36
2017-08-13T04:09:02.726Z,23.47
2017-08-13T04:10:02.767Z,23.36
2017-08-13T04:11:03.095Z,23.42
2017-08-13T04:12:02.808Z,23.38
2017-08-13T04:13:03.392Z,23.46
2017-08-13T04:14:03.177Z,23.39
2017-08-13T04:15:02.579Z,23.39
2017-08-13T04:16:03.228Z,23.35
2017-08-13T04:17:02.952Z,23.42
2017-08-13T04:18:03.541Z,23.47
2017-08-13T04:19:03.007Z,23.42
2017-08-13T04:20:03.330Z,23.39
2017-08-13T04:21:03.366Z,23.43
2017-08-13T04:22:03.391Z,23.39
2017-08-13T04:23:03.767Z,23.48
2017-08-13T04:24:03.441Z,23.46
2017-08-13T04:25:03.466Z,23.39
2017-08-13T04:26:02.874Z,23.48
2017-08-13T04:27:03.212Z,23.38
2017-08-13T04:28:03.796Z,23.51
2017-08-13T04:29:03.577Z,23.43
2017-08-13T04:30:03.295Z,23.47
2017-08-13T04:31:03.630Z,23.42
2017-08-13T04:32:03.343Z,23.48
2017-08-13T04:33:03.981Z,23.47
2017-08-13T04:34:03.713Z,23.43
2017-08-13T04:35:03.738Z,23.48
2017-08-13T04:36:03.451Z,23.5
2017-08-13T04:37:03.488Z,23.47
2017-08-13T04:38:04.121Z,23.46
2017-08-13T04:39:03.864Z,23.47
2017-08-13T04:40:03.558Z,23.48
2017-08-13T04:41:03.590Z,23.47
2017-08-13T04:42:03.627Z,23.46
2017-08-13T04:43:04.212Z,23.46
2017-08-13T04:44:03.997Z,23.47
2017-08-13T04:45:04.010Z,23.54
2017-08-13T04:46:04.035Z,23.48
2017-08-13T04:47:04.067Z,23.47
2017-08-13T04:48:04.415Z,23.5
2017-08-13T04:49:03.497Z,23.54
2017-08-13T04:50:04.149Z,23.46
2017-08-13T04:51:04.166Z,23.57
2017-08-13T04:52:04.204Z,23.51
2017-08-13T04:53:04.159Z,23.53
2017-08-13T04:54:03.942Z,23.55
2017-08-13T04:55:04.274Z,23.53
2017-08-13T04:56:04.301Z,23.53
2017-08-13T04:57:04.026Z,23.48
2017-08-13T04:58:04.619Z,23.5
2017-08-13T04:59:04.405Z,23.54
2017-08-13T05:00:04.421Z,23.54
2017-08-13T05:01:04.443Z,23.48
2017-08-13T05:02:03.854Z,23.57
2017-08-13T05:03:04.799Z,23.54
2017-08-13T05:04:04.209Z,23.54
2017-08-13T05:05:04.551Z,23.53
2017-08-13T05:06:04.573Z,23.53
2017-08-13T05:07:04.610Z,23.53
2017-08-13T05:08:04.619Z,23.54
2017-08-13T05:09:04.674Z,23.54
2017-08-13T05:10:04.369Z,23.54
2017-08-13T05:11:04.405Z,23.54
2017-08-13T05:12:04.743Z,23.57
2017-08-13T05:13:04.759Z,23.54
2017-08-13T05:14:04.808Z,23.55
2017-08-13T05:15:04.197Z,23.6
2017-08-13T05:16:04.225Z,23.51
2017-08-13T05:17:04.870Z,23.55
2017-08-13T05:18:05.207Z,23.58
2017-08-13T05:19:04.619Z,23.54
2017-08-13T05:20:04.646Z,23.53
2017-08-13T05:21:04.672Z,23.54
2017-08-13T05:22:05.007Z,23.57
2017-08-13T05:23:05.049Z,23.55
2017-08-13T05:24:04.757Z,23.58
2017-08-13T05:25:05.090Z,23.55
2017-08-13T05:26:05.122Z,23.55
2017-08-13T05:27:04.834Z,23.57
2017-08-13T05:28:05.175Z,23.53
2017-08-13T05:29:04.889Z,23.57
2017-08-13T05:30:04.918Z,23.61
2017-08-13T05:31:05.254Z,23.57
2017-08-13T05:32:05.279Z,23.61
2017-08-13T05:33:05.308Z,23.55
2017-08-13T05:34:05.024Z,23.57
2017-08-13T05:35:05.366Z,23.55
2017-08-13T05:36:05.082Z,23.57
2017-08-13T05:37:05.107Z,23.63
2017-08-13T05:38:05.449Z,23.57
2017-08-13T05:39:05.184Z,23.55
2017-08-13T05:40:05.497Z,23.6
2017-08-13T05:41:05.526Z,23.6
2017-08-13T05:42:05.246Z,23.6
2017-08-13T05:43:05.568Z,23.63
2017-08-13T05:44:05.619Z,23.61
2017-08-13T05:45:05.322Z,23.58
2017-08-13T05:46:05.350Z,23.6
2017-08-13T05:47:05.382Z,23.61
2017-08-13T05:48:05.403Z,23.63
2017-08-13T05:49:05.751Z,23.63
2017-08-13T05:50:05.767Z,23.65
2017-08-13T05:51:05.814Z,23.63
2017-08-13T05:52:05.820Z,23.51
2017-08-13T05:53:05.851Z,23.66
2017-08-13T05:54:05.568Z,23.55
2017-08-13T05:55:05.592Z,23.66
2017-08-13T05:56:05.937Z,23.6
2017-08-13T05:57:05.648Z,23.55
2017-08-13T05:58:05.667Z,23.65
2017-08-13T05:59:06.013Z,23.66
2017-08-13T06:00:06.055Z,23.54
2017-08-13T06:01:05.757Z,23.54
2017-08-13T06:02:05.790Z,23.65
2017-08-13T06:03:05.814Z,23.61
2017-08-13T06:04:06.151Z,23.66
2017-08-13T06:05:05.864Z,23.6
2017-08-13T06:06:05.890Z,23.66
2017-08-13T06:07:05.918Z,23.69
2017-08-13T06:08:05.644Z,23.6
2017-08-13T06:09:05.957Z,23.57
2017-08-13T06:10:05.704Z,23.57
2017-08-13T06:11:06.024Z,23.65
2017-08-13T06:12:06.361Z,23.61
2017-08-13T06:13:06.086Z,23.58
2017-08-13T06:14:06.359Z,23.6
2017-08-13T06:15:06.449Z,23.63
2017-08-13T06:16:06.166Z,23.61
2017-08-13T06:17:06.507Z,23.63
2017-08-13T06:18:06.533Z,23.55
2017-08-13T06:19:06.596Z,23.7
2017-08-13T06:20:06.585Z,23.55
2017-08-13T06:21:06.610Z,23.61
2017-08-13T06:22:06.634Z,23.69
2017-08-13T06:23:06.669Z,23.65
2017-08-13T06:24:06.653Z,23.65
2017-08-13T06:25:06.409Z,23.7
2017-08-13T06:26:06.442Z,23.61
2017-08-13T06:27:06.777Z,23.69
2017-08-13T06:28:06.482Z,23.61
2017-08-13T06:29:06.775Z,23.63
2017-08-13T06:30:06.543Z,23.57
2017-08-13T06:31:06.569Z,23.57
2017-08-13T06:32:06.298Z,23.53
2017-08-13T06:33:06.931Z,23.53
2017-08-13T06:34:06.947Z,23.69
2017-08-13T06:35:06.676Z,23.73
2017-08-13T06:36:07.017Z,23.66
2017-08-13T06:37:06.730Z,23.72
2017-08-13T06:38:07.064Z,23.72
2017-08-13T06:39:07.077Z,23.69
2017-08-13T06:40:07.121Z,23.73
2017-08-13T06:41:06.846Z,23.76
2017-08-13T06:42:07.174Z,23.75
2017-08-13T06:43:06.894Z,23.78
2017-08-13T06:44:07.536Z,23.69
2017-08-13T06:45:07.257Z,23.76
2017-08-13T06:46:06.988Z,23.66
2017-08-13T06:47:07.004Z,23.69
2017-08-13T06:48:07.060Z,23.78
2017-08-13T06:49:07.351Z,23.73
2017-08-13T06:50:07.409Z,23.75
2017-08-13T06:51:07.425Z,23.78
2017-08-13T06:52:07.446Z,23.65
2017-08-13T06:53:07.171Z,23.7
2017-08-13T06:54:07.490Z,23.76
2017-08-13T06:55:07.532Z,23.75
2017-08-13T06:56:07.247Z,23.73
2017-08-13T06:57:07.270Z,23.69
2017-08-13T06:58:07.616Z,23.72
2017-08-13T06:59:07.943Z,23.76
2017-08-13T07:00:07.677Z,23.72
2017-08-13T07:01:07.696Z,23.72
2017-08-13T07:02:07.410Z,23.8
2017-08-13T07:03:07.443Z,23.8
2017-08-13T07:04:07.772Z,23.78
2017-08-13T07:05:07.500Z,23.91
2017-08-13T07:06:07.525Z,23.83
2017-08-13T07:07:07.541Z,23.9
2017-08-13T07:08:07.907Z,23.87
2017-08-13T07:09:08.220Z,23.97
2017-08-13T07:10:07.941Z,23.91
2017-08-13T07:11:07.347Z,23.93
2017-08-13T07:12:07.375Z,23.94
2017-08-13T07:13:07.715Z,23.91
2017-08-13T07:14:08.408Z,23.95
2017-08-13T07:15:07.764Z,23.95
2017-08-13T07:16:07.491Z,23.95
2017-08-13T07:17:08.133Z,23.97
2017-08-13T07:18:07.855Z,23.93
2017-08-13T07:19:08.175Z,23.98
2017-08-13T07:20:07.597Z,24
2017-08-13T07:21:08.248Z,23.97
2017-08-13T07:22:07.962Z,24
2017-08-13T07:23:07.979Z,24.06
2017-08-13T07:24:08.575Z,24
2017-08-13T07:25:08.344Z,24
2017-08-13T07:26:08.381Z,24.05
2017-08-13T07:27:08.090Z,24.06
2017-08-13T07:28:08.440Z,24.05
2017-08-13T07:29:08.443Z,24.05
2017-08-13T07:30:08.484Z,24.06
2017-08-13T07:31:08.521Z,24.1
2017-08-13T07:32:08.547Z,24.08
2017-08-13T07:33:08.575Z,24.09
2017-08-13T07:34:08.868Z,24.13
2017-08-13T07:35:08.616Z,24.15
2017-08-13T07:36:08.029Z,24.09
2017-08-13T07:37:08.679Z,24.16
2017-08-13T07:38:08.707Z,24.16
2017-08-13T07:39:08.674Z,24.16
2017-08-13T07:40:08.767Z,24.16
2017-08-13T07:41:08.798Z,24.18
2017-08-13T07:42:08.509Z,24.16
2017-08-13T07:43:08.851Z,24.21
2017-08-13T07:44:08.862Z,24.28
2017-08-13T07:45:08.588Z,24.24
2017-08-13T07:46:08.310Z,24.21
2017-08-13T07:47:08.645Z,24.27
2017-08-13T07:48:08.692Z,24.28
2017-08-13T07:49:08.955Z,24.28
2017-08-13T07:50:09.033Z,24.16
2017-08-13T07:51:08.756Z,24.16
2017-08-13T07:52:09.097Z,24.24
2017-08-13T07:53:08.832Z,24.24
2017-08-13T07:54:09.399Z,24.22
2017-08-13T07:55:09.175Z,24.24
2017-08-13T07:56:08.884Z,24.2
2017-08-13T07:57:08.922Z,24.34
2017-08-13T07:58:08.947Z,24.22
2017-08-13T07:59:08.971Z,24.27
2017-08-13T08:00:08.995Z,24.25
2017-08-13T08:01:09.340Z,24.39
2017-08-13T08:02:09.377Z,24.21
2017-08-13T08:03:09.391Z,24.27
2017-08-13T08:04:09.424Z,24.4
2017-08-13T08:05:09.452Z,24.32
2017-08-13T08:06:09.161Z,24.31
2017-08-13T08:07:09.194Z,24.43
2017-08-13T08:08:08.914Z,24.28
2017-08-13T08:09:09.260Z,24.35
2017-08-13T08:10:09.603Z,24.31
2017-08-13T08:11:08.993Z,24.34
2017-08-13T08:12:09.645Z,24.32
2017-08-13T08:13:09.674Z,24.34
2017-08-13T08:14:09.078Z,24.28
2017-08-13T08:15:09.795Z,24.4
2017-08-13T08:16:09.448Z,24.3
2017-08-13T08:17:09.471Z,24.39
2017-08-13T08:18:09.813Z,24.4
2017-08-13T08:19:09.536Z,24.39
2017-08-13T08:20:09.496Z,24.34
2017-08-13T08:21:09.268Z,24.43
2017-08-13T08:22:09.920Z,24.34
2017-08-13T08:23:09.638Z,24.39
2017-08-13T08:24:09.978Z,24.43
2017-08-13T08:25:09.680Z,24.42
2017-08-13T08:26:09.722Z,24.43
2017-08-13T08:27:10.064Z,24.5
2017-08-13T08:28:10.086Z,24.5
2017-08-13T08:29:10.112Z,24.42
2017-08-13T08:30:10.442Z,24.55
2017-08-13T08:31:10.172Z,24.49
2017-08-13T08:32:09.885Z,24.45
2017-08-13T08:33:09.937Z,24.52
2017-08-13T08:34:10.259Z,24.49
2017-08-13T08:35:10.531Z,24.58
2017-08-13T08:36:10.305Z,24.5
2017-08-13T08:37:10.026Z,24.55
2017-08-13T08:38:10.369Z,24.53
2017-08-13T08:39:10.390Z,24.52
2017-08-13T08:40:10.056Z,24.55
2017-08-13T08:41:10.136Z,24.58
2017-08-13T08:42:10.478Z,24.55
2017-08-13T08:43:10.501Z,24.52
2017-08-13T08:44:10.222Z,24.49
2017-08-13T08:45:10.236Z,24.5
2017-08-13T08:46:10.592Z,24.67
2017-08-13T08:47:10.617Z,24.67
2017-08-13T08:48:10.639Z,24.69
2017-08-13T08:49:10.668Z,24.61
2017-08-13T08:50:10.996Z,24.6
2017-08-13T08:51:10.728Z,24.71
2017-08-13T08:52:10.761Z,24.57
2017-08-13T08:53:10.783Z,24.73
2017-08-13T08:54:10.807Z,24.71
2017-08-13T08:55:11.188Z,24.71
2017-08-13T08:56:10.865Z,24.73
2017-08-13T08:57:10.898Z,24.76
2017-08-13T08:58:10.321Z,24.69
2017-08-13T08:59:10.945Z,24.67
2017-08-13T09:00:11.274Z,24.65
2017-08-13T09:01:10.693Z,24.83
2017-08-13T09:02:11.037Z,24.78
2017-08-13T09:03:11.063Z,24.8
2017-08-13T09:04:10.779Z,24.8
2017-08-13T09:05:11.052Z,24.9
2017-08-13T09:06:11.149Z,24.85
2017-08-13T09:07:11.184Z,24.81
2017-08-13T09:08:10.893Z,24.88
2017-08-13T09:09:11.234Z,24.87
2017-08-13T09:10:11.563Z,24.87
2017-08-13T09:11:11.302Z,24.83
2017-08-13T09:12:11.309Z,24.87
2017-08-13T09:13:11.025Z,24.84
2017-08-13T09:14:11.387Z,24.83
2017-08-13T09:15:11.387Z,24.87
2017-08-13T09:16:11.109Z,24.91
2017-08-13T09:17:11.449Z,24.87
2017-08-13T09:18:11.173Z,24.87
2017-08-13T09:19:11.195Z,24.87
2017-08-13T09:20:11.835Z,24.85
2017-08-13T09:21:11.257Z,24.9
2017-08-13T09:22:11.597Z,24.88
2017-08-13T09:23:11.305Z,24.88
2017-08-13T09:24:11.337Z,25
2017-08-13T09:25:11.721Z,24.95
2017-08-13T09:26:11.704Z,24.93
2017-08-13T09:27:11.734Z,24.96
2017-08-13T09:28:11.763Z,24.98
2017-08-13T09:29:11.791Z,24.95
2017-08-13T09:30:11.811Z,24.99
2017-08-13T09:31:11.224Z,25.02
2017-08-13T09:32:11.873Z,24.96
2017-08-13T09:33:11.902Z,24.99
2017-08-13T09:34:11.631Z,25.02
2017-08-13T09:35:11.944Z,25.06
2017-08-13T09:36:11.364Z,25.05
2017-08-13T09:37:12.018Z,25.03
2017-08-13T09:38:11.734Z,25.05
2017-08-13T09:39:11.771Z,25.08
2017-08-13T09:40:12.102Z,25.06
2017-08-13T09:41:12.136Z,25.02
2017-08-13T09:42:12.162Z,25.03
2017-08-13T09:43:11.876Z,25
2017-08-13T09:44:11.901Z,25.02
2017-08-13T09:45:11.875Z,25.1
2017-08-13T09:46:11.964Z,25.1
2017-08-13T09:47:11.677Z,25.14
2017-08-13T09:48:12.014Z,25.08
2017-08-13T09:49:12.043Z,25.14
2017-08-13T09:50:12.638Z,25.08
2017-08-13T09:51:12.109Z,25.15
2017-08-13T09:52:12.125Z,25.05
2017-08-13T09:53:12.155Z,25.13
2017-08-13T09:54:12.499Z,25.13
2017-08-13T09:55:12.509Z,25.05
2017-08-13T09:56:12.240Z,25.13
2017-08-13T09:57:12.584Z,25.13
2017-08-13T09:58:12.322Z,25.18
2017-08-13T09:59:12.634Z,25.08
2017-08-13T10:00:12.651Z,25.1
2017-08-13T10:01:12.704Z,25.1
2017-08-13T10:02:12.721Z,25.14
2017-08-13T10:03:12.749Z,25.14
2017-08-13T10:04:12.474Z,25.15
2017-08-13T10:05:12.795Z,25.09
2017-08-13T10:06:12.839Z,25.15
2017-08-13T10:07:12.864Z,25.08
2017-08-13T10:08:12.890Z,25.13
2017-08-13T10:09:12.606Z,25.06
2017-08-13T10:10:13.250Z,25.09
2017-08-13T10:11:12.669Z,25.02
2017-08-13T10:12:12.688Z,25.08
2017-08-13T10:13:13.038Z,25
2017-08-13T10:14:12.742Z,25
2017-08-13T10:15:12.463Z,24.93
2017-08-13T10:16:12.541Z,25.03
2017-08-13T10:17:13.141Z,24.99
2017-08-13T10:18:12.929Z,24.99
2017-08-13T10:19:12.891Z,25.05
2017-08-13T10:20:12.919Z,24.98
2017-08-13T10:21:12.949Z,24.93
2017-08-13T10:22:13.282Z,24.88
2017-08-13T10:23:13.312Z,24.88
2017-08-13T10:24:13.030Z,24.88
2017-08-13T10:25:13.059Z,24.87
2017-08-13T10:26:13.408Z,24.87
2017-08-13T10:27:13.423Z,24.87
2017-08-13T10:28:13.138Z,24.85
2017-08-13T10:29:13.170Z,24.83
2017-08-13T10:30:13.514Z,24.9
2017-08-13T10:31:13.544Z,24.81
2017-08-13T10:32:13.265Z,24.87
2017-08-13T10:33:13.593Z,24.81
2017-08-13T10:34:13.318Z,24.87
2017-08-13T10:35:13.651Z,24.9
2017-08-13T10:36:13.687Z,24.8
2017-08-13T10:37:13.402Z,24.77
2017-08-13T10:38:13.736Z,24.87
2017-08-13T10:39:13.455Z,24.9
2017-08-13T10:40:13.484Z,24.87
2017-08-13T10:41:14.067Z,24.88
2017-08-13T10:42:13.541Z,24.88
2017-08-13T10:43:13.252Z,24.93
2017-08-13T10:44:13.908Z,24.95
2017-08-13T10:45:13.934Z,24.98
2017-08-13T10:46:14.231Z,24.99
2017-08-13T10:47:13.676Z,25.03
2017-08-13T10:48:14.020Z,25.08
2017-08-13T10:49:14.046Z,25.09
2017-08-13T10:50:14.075Z,25.09
2017-08-13T10:51:14.087Z,25.1
2017-08-13T10:52:13.813Z,25.13
2017-08-13T10:53:14.161Z,25.15
2017-08-13T10:54:14.179Z,25.15
2017-08-13T10:55:14.226Z,25.17
2017-08-13T10:56:13.919Z,25.21
2017-08-13T10:57:14.271Z,25.25
2017-08-13T10:58:14.296Z,25.25
2017-08-13T10:59:14.326Z,25.1
2017-08-13T11:00:14.358Z,25.18
2017-08-13T11:01:14.327Z,25.17
2017-08-13T11:02:14.412Z,25.15
2017-08-13T11:03:14.129Z,25.23
2017-08-13T11:04:14.470Z,25.18
2017-08-13T11:05:14.190Z,25.14
2017-08-13T11:06:14.522Z,25.14
2017-08-13T11:07:14.552Z,25.1
2017-08-13T11:08:13.961Z,25.13
2017-08-13T11:09:14.310Z,25.13
2017-08-13T11:10:14.634Z,25.15
2017-08-13T11:11:14.654Z,25.15
2017-08-13T11:12:14.692Z,25.1
2017-08-13T11:13:14.721Z,25.1
2017-08-13T11:14:14.438Z,24.99
2017-08-13T11:15:14.158Z,25.03
2017-08-13T11:16:14.794Z,25.05
2017-08-13T11:17:14.840Z,24.96
2017-08-13T11:18:14.561Z,24.98
2017-08-13T11:19:14.898Z,25
2017-08-13T11:20:14.611Z,25
2017-08-13T11:21:14.580Z,24.96
2017-08-13T11:22:14.665Z,24.96
2017-08-13T11:23:14.692Z,24.96
2017-08-13T11:24:14.722Z,24.99
2017-08-13T11:25:15.062Z,25.03
2017-08-13T11:26:15.081Z,24.9
2017-08-13T11:27:14.810Z,24.93
2017-08-13T11:28:14.832Z,24.9
2017-08-13T11:29:14.861Z,25.03
2017-08-13T11:30:15.206Z,25.03
2017-08-13T11:31:15.541Z,24.91
2017-08-13T11:32:15.260Z,24.98
2017-08-13T11:33:15.297Z,24.93
2017-08-13T11:34:15.312Z,24.93
2017-08-13T11:35:15.029Z,24.96
2017-08-13T11:36:15.678Z,25.03
2017-08-13T11:37:15.094Z,24.96
2017-08-13T11:38:14.796Z,24.95
2017-08-13T11:39:15.142Z,25
2017-08-13T11:40:15.480Z,24.96
2017-08-13T11:41:15.450Z,24.96
2017-08-13T11:42:15.227Z,25.02
2017-08-13T11:43:15.576Z,24.96
2017-08-13T11:44:15.285Z,25
2017-08-13T11:45:15.330Z,25.03
2017-08-13T11:46:15.029Z,25.02
2017-08-13T11:47:15.680Z,25
2017-08-13T11:48:15.399Z,25.05
2017-08-13T11:49:15.733Z,25.02
2017-08-13T11:50:15.764Z,25.05
2017-08-13T11:51:15.475Z,25.05
2017-08-13T11:52:15.196Z,25.03
2017-08-13T11:53:15.853Z,25.02
2017-08-13T11:54:15.262Z,25.02
2017-08-13T11:55:15.914Z,25.05
2017-08-13T11:56:15.934Z,25.1
2017-08-13T11:57:15.968Z,25.1
2017-08-13T11:58:15.989Z,25.09
2017-08-13T11:59:15.713Z,25.14
2017-08-13T12:00:15.758Z,25.06
2017-08-13T12:01:15.769Z,25.1
2017-08-13T12:02:16.101Z,25.1
2017-08-13T12:03:16.136Z,25.14
2017-08-13T12:04:16.161Z,25.13
2017-08-13T12:05:15.876Z,25.06
2017-08-13T12:06:15.597Z,25.14
2017-08-13T12:07:16.249Z,25.15
2017-08-13T12:08:16.288Z,25.14
2017-08-13T12:09:15.989Z,25.13
2017-08-13T12:10:16.330Z,25.1
2017-08-13T12:11:16.044Z,25.2
2017-08-13T12:12:16.383Z,25.13
2017-08-13T12:13:16.412Z,25.09
2017-08-13T12:14:16.444Z,25.05
2017-08-13T12:15:15.846Z,25.1
2017-08-13T12:16:16.504Z,25.14
2017-08-13T12:17:16.215Z,25.14
2017-08-13T12:18:16.252Z,25.05
2017-08-13T12:19:16.581Z,25.09
2017-08-13T12:20:16.306Z,25.08
2017-08-13T12:21:16.637Z,25.09
2017-08-13T12:22:16.363Z,25.02
2017-08-13T12:23:16.707Z,25.03
2017-08-13T12:24:16.437Z,24.99
2017-08-13T12:25:16.750Z,24.93
2017-08-13T12:26:16.472Z,25.02
2017-08-13T12:27:16.504Z,25.03
2017-08-13T12:28:16.520Z,24.99
2017-08-13T12:29:16.573Z,24.96
2017-08-13T12:30:16.889Z,24.95
2017-08-13T12:31:16.918Z,25
2017-08-13T12:32:16.948Z,24.9
2017-08-13T12:33:16.981Z,24.88
2017-08-13T12:34:16.689Z,24.95
2017-08-13T12:35:16.726Z,24.9
2017-08-13T12:36:17.065Z,25.03
2017-08-13T12:37:17.083Z,24.98
2017-08-13T12:38:16.799Z,25.05
2017-08-13T12:39:16.840Z,24.91
2017-08-13T12:40:17.171Z,24.99
2017-08-13T12:41:17.208Z,25.02
2017-08-13T12:42:17.544Z,24.99
2017-08-13T12:43:17.264Z,24.99
2017-08-13T12:44:17.285Z,24.96
2017-08-13T12:45:17.309Z,24.99
2017-08-13T12:46:16.718Z,24.96
2017-08-13T12:47:17.676Z,24.98
2017-08-13T12:48:17.093Z,24.98
2017-08-13T12:49:17.432Z,25.02
2017-08-13T12:50:17.457Z,25.05
2017-08-13T12:51:17.487Z,24.91
2017-08-13T12:52:17.807Z,25.02
2017-08-13T12:53:17.544Z,24.98
2017-08-13T12:54:17.570Z,25.02
2017-08-13T12:55:17.598Z,25.02
2017-08-13T12:56:17.627Z,25.05
2017-08-13T12:57:17.903Z,25.08